Woonsocket, South Dakota
Current Conditions -  °F | °C
As of 11:53 PM on Thursday 30 Oct 2014 (Local Time) from KMHE Reporting Station
Scattered Clouds Scattered Clouds  
Wind Chill: 21°   Ceiling: Unl
Heat Index: 30°   Visibility: 10mi
Dew Point: 22°   Wind: 12mph
Humidity: 72%   Direction: 360°N
Pressure: 30.55"   Gusts: NA
Location:  44.05°N, 98.28°W
Report Text: KMHE 310453Z AUTO 36010KT 10SM SCT030 M01/M06 A3055 RMK AO2 SLP356 T10111056
Loading
Personal Weather Stations






























Interactive Weather Map
Tropical Storm Tracking
New forecast layout! Learn more

10-Day Weather Forecast

Advertisements
Track Severe Weather on mobile